Time;durP1;ratioP1;P1;durP2;ratioP2;P2;SDS_P1;SDS_P2;PMS_P1;PMS_P2;Temp;Humidity;BMP_temperature;BMP_pressure;BME280_temperature;BME280_humidity;BME280_pressure;Samples;Min_cycle;Max_cycle;Signal;HPM_P1;HPM_P2
2022/11/18 00:00:07;;;;;;;3.05;2.40;;;8.80;99.90;;;;;;5070719;28;20199;-66
2022/11/18 00:02:34;;;;;;;3.88;2.40;;;8.80;99.90;;;;;;5067724;28;20203;-66
2022/11/18 00:05:03;;;;;;;2.83;2.60;;;8.80;99.90;;;;;;5070921;28;20678;-66
2022/11/18 00:07:32;;;;;;;2.95;2.72;;;8.70;99.90;;;;;;5071680;28;20227;-66
2022/11/18 00:10:00;;;;;;;3.97;3.10;;;8.80;99.90;;;;;;5070188;28;20196;-65
2022/11/18 00:15:13;;;;;;;4.40;3.60;;;8.80;99.90;;;;;;5057895;28;20192;-66
2022/11/18 00:17:41;;;;;;;7.57;3.72;;;8.80;99.90;;;;;;5065710;28;20204;-65
2022/11/18 00:20:09;;;;;;;6.05;4.22;;;8.80;99.90;;;;;;5052439;28;20207;-65
2022/11/18 00:22:39;;;;;;;5.07;4.45;;;8.80;99.90;;;;;;5057336;28;20196;-64
2022/11/18 00:25:07;;;;;;;4.70;4.30;;;8.80;99.90;;;;;;5070910;28;20203;-65
2022/11/18 00:27:35;;;;;;;4.68;4.13;;;8.80;99.90;;;;;;5060871;28;20213;-65
2022/11/18 00:30:04;;;;;;;4.03;3.63;;;8.80;99.90;;;;;;5051782;28;20541;-67
2022/11/18 00:32:31;;;;;;;5.97;3.92;;;8.80;99.90;;;;;;5051828;28;20253;-66
2022/11/18 00:34:59;;;;;;;6.20;4.07;;;8.80;99.90;;;;;;5052397;28;20207;-66
2022/11/18 00:37:27;;;;;;;5.22;3.85;;;8.80;99.90;;;;;;5056750;28;20189;-67
2022/11/18 00:39:56;;;;;;;6.40;4.35;;;8.80;99.90;;;;;;5070808;28;20265;-67
2022/11/18 00:45:10;;;;;;;7.43;4.10;;;8.80;99.90;;;;;;5055719;28;20197;-66
2022/11/18 00:47:38;;;;;;;4.90;4.50;;;8.80;99.90;;;;;;5058262;28;20212;-66
2022/11/18 00:50:06;;;;;;;5.78;5.03;;;8.80;99.90;;;;;;5069705;28;20203;-66
2022/11/18 00:52:34;;;;;;;6.15;5.55;;;8.80;99.90;;;;;;5070577;28;20195;-66
2022/11/18 00:55:04;;;;;;;6.00;5.15;;;8.90;99.90;;;;;;5071830;28;20195;-66
2022/11/18 00:57:32;;;;;;;5.70;5.18;;;8.90;99.90;;;;;;5070800;28;20196;-66
2022/11/18 01:00:00;;;;;;;6.82;6.22;;;8.90;99.90;;;;;;5066887;28;20197;-66
2022/11/18 01:02:28;;;;;;;6.28;5.50;;;8.90;99.90;;;;;;5053861;28;20267;-66
2022/11/18 01:04:55;;;;;;;5.90;5.28;;;8.90;99.90;;;;;;5055008;28;20271;-65
2022/11/18 01:07:24;;;;;;;6.28;5.78;;;8.90;99.90;;;;;;5074678;28;20578;-65
2022/11/18 01:09:51;;;;;;;7.65;6.30;;;9.00;99.90;;;;;;5058384;28;20547;-65
2022/11/18 01:15:07;;;;;;;6.68;5.43;;;9.00;99.90;;;;;;5058518;28;20208;-65
2022/11/18 01:17:35;;;;;;;5.95;5.35;;;9.00;99.90;;;;;;5071443;28;20651;-65
2022/11/18 01:20:03;;;;;;;6.95;5.53;;;8.90;99.90;;;;;;5055027;28;20201;-65
2022/11/18 01:22:31;;;;;;;9.10;6.15;;;8.90;99.90;;;;;;5072172;28;20201;-65
2022/11/18 01:24:59;;;;;;;8.65;6.22;;;8.90;99.90;;;;;;5055693;28;20192;-65
2022/11/18 01:27:28;;;;;;;5.78;5.38;;;8.90;99.90;;;;;;5054699;28;20216;-65
2022/11/18 01:29:56;;;;;;;7.22;5.50;;;8.90;99.90;;;;;;5060626;28;20200;-65
2022/11/18 01:32:24;;;;;;;6.00;5.50;;;8.90;99.90;;;;;;5055281;28;20197;-65
2022/11/18 01:34:52;;;;;;;7.95;5.43;;;8.90;99.90;;;;;;5070399;28;20200;-65
2022/11/18 01:37:20;;;;;;;6.10;5.60;;;9.00;99.90;;;;;;5075311;28;20572;-67
2022/11/18 01:39:48;;;;;;;10.77;6.65;;;9.00;99.90;;;;;;5056043;28;20698;-66
2022/11/18 01:42:17;;;;;;;6.07;5.60;;;9.00;99.90;;;;;;5055248;28;20208;-66
2022/11/18 01:45:03;;;;;;;6.47;4.97;;;9.00;99.90;;;;;;5053960;28;20204;-66
2022/11/18 01:47:35;;;;;;;8.77;5.30;;;9.00;99.90;;;;;;5070182;28;20242;-66
2022/11/18 01:50:04;;;;;;;6.88;5.15;;;9.00;99.90;;;;;;5054978;28;20243;-65
2022/11/18 01:52:33;;;;;;;8.05;5.70;;;9.10;99.90;;;;;;5073205;28;20230;-66
2022/11/18 01:55:07;;;;;;;6.95;5.22;;;9.10;99.90;;;;;;5066519;28;20589;-65
2022/11/18 01:57:35;;;;;;;10.50;5.30;;;9.10;99.90;;;;;;5054713;28;20255;-65
2022/11/18 02:00:07;;;;;;;5.90;5.43;;;9.10;99.90;;;;;;5071475;28;20200;-66
2022/11/18 02:02:37;;;;;;;7.45;5.10;;;9.10;99.90;;;;;;5058656;28;20651;-65
2022/11/18 02:05:07;;;;;;;9.73;5.90;;;9.10;99.90;;;;;;5062327;28;20682;-66
2022/11/18 02:07:41;;;;;;;8.75;5.68;;;9.10;99.90;;;;;;5061438;28;20544;-65
2022/11/18 02:10:19;;;;;;;7.20;6.45;;;9.10;99.90;;;;;;5073971;28;20180;-65
2022/11/18 02:12:48;;;;;;;7.03;6.35;;;9.10;99.90;;;;;;5073507;28;20224;-66
2022/11/18 02:15:22;;;;;;;7.13;6.38;;;9.10;99.90;;;;;;5068514;28;20655;-65
2022/11/18 02:17:58;;;;;;;8.32;6.55;;;9.20;99.90;;;;;;5059442;28;20194;-67
2022/11/18 02:20:32;;;;;;;6.85;6.15;;;9.20;99.90;;;;;;5072900;28;20655;-66
2022/11/18 02:23:37;;;;;;;6.65;6.03;;;9.20;99.90;;;;;;5066604;28;20184;-66
2022/11/18 02:26:37;;;;;;;6.75;6.15;;;9.20;99.90;;;;;;5067998;28;20202;-65
2022/11/18 02:29:09;;;;;;;9.82;6.60;;;9.20;99.90;;;;;;5069570;28;20289;-65
2022/11/18 02:31:45;;;;;;;9.27;7.35;;;9.30;99.90;;;;;;5053465;28;20590;-65
2022/11/18 02:34:21;;;;;;;12.57;6.60;;;9.20;99.90;;;;;;5054070;28;20204;-66
2022/11/18 02:36:57;;;;;;;8.13;7.03;;;9.20;99.90;;;;;;5053832;28;20227;-65
2022/11/18 02:39:31;;;;;;;10.10;7.30;;;9.20;99.90;;;;;;5053664;28;20237;-65
2022/11/18 02:42:02;;;;;;;9.70;7.30;;;9.20;99.90;;;;;;5053760;28;20196;-65
2022/11/18 02:44:33;;;;;;;8.32;6.72;;;9.20;99.90;;;;;;5055385;28;20185;-66
2022/11/18 02:47:05;;;;;;;6.75;6.13;;;9.20;99.90;;;;;;5063063;28;20254;-65
2022/11/18 02:49:38;;;;;;;11.60;7.22;;;9.20;99.90;;;;;;5074061;28;20607;-65
2022/11/18 02:52:10;;;;;;;6.38;5.78;;;9.20;99.90;;;;;;5055802;28;20193;-66
2022/11/18 02:54:41;;;;;;;6.95;5.60;;;9.20;99.90;;;;;;5053203;28;20192;-66
2022/11/18 02:57:09;;;;;;;4.88;4.38;;;9.20;99.90;;;;;;5052140;28;20655;-65
2022/11/18 02:59:39;;;;;;;5.57;4.93;;;9.20;99.90;;;;;;5053395;28;20200;-65
2022/11/18 03:02:07;;;;;;;3.30;3.00;;;9.20;99.90;;;;;;5052818;28;20257;-65
2022/11/18 03:04:35;;;;;;;3.10;2.80;;;9.20;99.90;;;;;;5051869;28;20278;-65
2022/11/18 03:07:10;;;;;;;3.15;2.85;;;9.20;99.90;;;;;;5053976;28;20199;-65
2022/11/18 03:09:41;;;;;;;4.40;4.10;;;9.20;99.90;;;;;;5064326;28;20566;-65
2022/11/18 03:12:17;;;;;;;2.10;1.90;;;9.20;99.90;;;;;;5053075;28;20220;-65
2022/11/18 03:14:56;;;;;;;2.50;1.70;;;9.10;99.90;;;;;;5058882;28;20192;-65
2022/11/18 03:17:34;;;;;;;1.50;1.40;;;9.10;99.90;;;;;;5071354;28;20195;-65
2022/11/18 03:20:12;;;;;;;2.28;1.70;;;9.10;99.90;;;;;;5072495;28;20192;-65
2022/11/18 03:22:43;;;;;;;1.35;1.20;;;9.10;99.90;;;;;;5067268;28;20185;-65
2022/11/18 03:25:17;;;;;;;2.67;1.20;;;9.00;99.90;;;;;;5053890;28;20193;-65
2022/11/18 03:27:50;;;;;;;3.88;1.83;;;9.00;99.90;;;;;;5056667;28;20231;-65
2022/11/18 03:30:23;;;;;;;2.47;1.98;;;9.00;99.90;;;;;;5051802;28;20698;-65
2022/11/18 03:32:57;;;;;;;8.43;5.82;;;9.00;99.90;;;;;;5052662;28;20242;-65
2022/11/18 03:35:28;;;;;;;10.88;9.30;;;9.00;99.90;;;;;;5068109;28;20186;-65
2022/11/18 03:38:00;;;;;;;11.85;10.57;;;9.00;99.90;;;;;;5056331;28;20195;-65
2022/11/18 03:40:32;;;;;;;12.52;11.35;;;9.00;99.90;;;;;;5051504;28;20197;-65
2022/11/18 03:43:05;;;;;;;11.65;10.73;;;9.00;99.90;;;;;;5053784;28;20201;-65
2022/11/18 03:45:39;;;;;;;3.72;3.42;;;9.00;99.90;;;;;;5052473;28;20626;-65
2022/11/18 03:48:12;;;;;;;28.25;23.50;;;8.90;99.90;;;;;;5069516;28;20192;-66
2022/11/18 03:50:46;;;;;;;35.47;28.02;;;8.90;99.90;;;;;;5072161;28;20195;-65
2022/11/18 03:53:15;;;;;;;33.05;26.92;;;8.90;99.90;;;;;;5053522;28;20185;-65
2022/11/18 03:55:48;;;;;;;20.88;17.85;;;8.90;99.90;;;;;;5064886;28;20204;-65
2022/11/18 03:58:24;;;;;;;8.48;4.55;;;8.90;99.90;;;;;;5051965;28;20197;-65
2022/11/18 04:00:58;;;;;;;30.88;20.55;;;8.80;99.90;;;;;;5051454;28;20192;-65
2022/11/18 04:03:26;;;;;;;42.55;34.65;;;8.80;99.90;;;;;;5055696;28;20263;-65
2022/11/18 04:06:01;;;;;;;26.80;20.98;;;8.80;99.90;;;;;;5059387;28;20207;-65
2022/11/18 04:08:35;;;;;;;15.68;13.95;;;8.70;99.90;;;;;;5052833;28;20204;-65
2022/11/18 04:11:09;;;;;;;4.53;4.18;;;8.70;99.90;;;;;;5051579;28;20228;-65
2022/11/18 04:13:38;;;;;;;8.38;7.63;;;8.60;99.90;;;;;;5052033;28;20204;-65
2022/11/18 04:16:10;;;;;;;3.58;1.38;;;8.60;99.90;;;;;;5061185;28;20196;-65
2022/11/18 04:18:38;;;;;;;1.70;1.60;;;8.60;99.90;;;;;;5066659;28;20184;-65
2022/11/18 04:21:06;;;;;;;1.98;1.08;;;8.60;99.90;;;;;;5052815;28;20491;-65
2022/11/18 04:23:34;;;;;;;1.52;1.42;;;8.60;99.90;;;;;;5068033;28;20208;-65
2022/11/18 04:26:02;;;;;;;2.47;1.58;;;8.50;99.90;;;;;;5055614;28;20257;-66
2022/11/18 04:28:29;;;;;;;1.88;1.20;;;8.50;99.90;;;;;;5051276;28;20232;-65
2022/11/18 04:30:58;;;;;;;4.13;1.58;;;8.50;99.90;;;;;;5051710;28;20201;-65
2022/11/18 04:33:27;;;;;;;2.10;0.98;;;8.50;99.90;;;;;;5061280;28;20197;-65
2022/11/18 04:35:55;;;;;;;2.10;1.00;;;8.40;99.90;;;;;;5055292;28;20205;-66
2022/11/18 04:38:23;;;;;;;1.42;1.05;;;8.40;99.90;;;;;;5055891;28;20258;-65
2022/11/18 04:40:51;;;;;;;1.00;0.90;;;8.40;99.90;;;;;;5053692;28;20216;-65
2022/11/18 04:43:18;;;;;;;0.80;0.80;;;8.40;99.90;;;;;;5059276;28;20203;-65
2022/11/18 04:45:46;;;;;;;3.67;1.50;;;8.40;99.90;;;;;;5064255;28;20201;-65
2022/11/18 04:48:14;;;;;;;3.42;1.00;;;8.40;99.90;;;;;;5073667;28;20601;-65
2022/11/18 04:50:44;;;;;;;1.33;0.90;;;8.40;99.90;;;;;;5069715;28;20220;-65
2022/11/18 04:53:11;;;;;;;1.67;1.10;;;8.40;99.90;;;;;;5055154;28;20200;-66
2022/11/18 04:56:03;;;;;;;1.40;0.75;;;8.30;99.90;;;;;;5054362;28;20203;-65
2022/11/18 04:58:49;;;;;;;1.70;1.10;;;8.30;99.90;;;;;;5055054;28;20604;-65
2022/11/18 05:01:20;;;;;;;0.93;0.75;;;8.30;99.90;;;;;;5054869;28;20197;-64
2022/11/18 05:03:51;;;;;;;2.10;0.90;;;8.30;99.90;;;;;;5067258;28;20616;-64
2022/11/18 05:06:23;;;;;;;2.78;1.73;;;8.20;99.90;;;;;;5075273;28;20180;-65
2022/11/18 05:08:52;;;;;;;1.73;1.10;;;8.20;99.90;;;;;;5075282;28;20196;-65
2022/11/18 05:14:05;;;;;;;2.67;1.10;;;8.20;99.90;;;;;;5064222;28;20188;-65
2022/11/18 05:16:33;;;;;;;3.63;1.40;;;8.10;99.90;;;;;;5075437;28;20204;-64
2022/11/18 05:19:15;;;;;;;2.28;1.15;;;8.10;99.90;;;;;;5057137;28;20200;-65
2022/11/18 05:21:53;;;;;;;1.60;0.80;;;8.10;99.90;;;;;;5054474;28;20234;-65
2022/11/18 05:24:24;;;;;;;3.30;0.98;;;8.10;99.90;;;;;;5053496;28;20205;-65
2022/11/18 05:26:56;;;;;;;1.95;0.80;;;8.00;99.90;;;;;;5055024;28;20209;-64
2022/11/18 05:29:51;;;;;;;1.27;0.80;;;8.00;99.90;;;;;;5039110;28;20235;-65
2022/11/18 05:32:20;;;;;;;1.23;0.90;;;7.90;99.90;;;;;;5053736;28;20197;-65
2022/11/18 05:34:54;;;;;;;2.00;0.73;;;7.90;99.90;;;;;;5069274;28;20203;-65
2022/11/18 05:37:32;;;;;;;0.50;0.50;;;7.90;99.90;;;;;;5073453;28;20580;-65
2022/11/18 05:40:00;;;;;;;1.15;0.80;;;7.80;99.90;;;;;;5059347;28;20196;-65
2022/11/18 05:45:14;;;;;;;0.80;0.80;;;7.80;99.90;;;;;;5069276;28;20211;-65
2022/11/18 05:50:24;;;;;;;2.47;0.93;;;7.80;99.90;;;;;;5059269;28;20203;-65
2022/11/18 05:52:53;;;;;;;1.33;0.80;;;7.80;99.90;;;;;;5073252;28;20245;-65
2022/11/18 05:55:24;;;;;;;1.00;0.90;;;7.80;99.90;;;;;;5055130;28;20707;-65
2022/11/18 05:57:52;;;;;;;4.00;0.80;;;7.80;99.90;;;;;;5065110;28;20195;-69
2022/11/18 06:00:20;;;;;;;0.80;0.60;;;7.80;99.90;;;;;;5070102;28;20713;-65
2022/11/18 06:02:50;;;;;;;4.35;0.80;;;7.70;99.90;;;;;;5063924;28;20204;-65
2022/11/18 06:05:21;;;;;;;0.70;0.70;;;7.70;99.90;;;;;;5063751;28;20220;-65
2022/11/18 06:07:49;;;;;;;2.83;0.70;;;7.70;99.90;;;;;;5062470;28;20192;-65
2022/11/18 06:10:22;;;;;;;0.60;0.60;;;7.70;99.90;;;;;;5060746;28;20212;-65
2022/11/18 06:12:52;;;;;;;0.80;0.70;;;7.60;99.90;;;;;;5060398;28;20531;-65
2022/11/18 06:15:27;;;;;;;0.80;0.60;;;7.70;99.90;;;;;;5062179;28;20211;-65
2022/11/18 06:18:00;;;;;;;0.77;0.70;;;7.60;99.90;;;;;;5054348;28;20207;-65
2022/11/18 06:20:29;;;;;;;0.82;0.82;;;7.60;99.90;;;;;;5060986;28;20646;-65
2022/11/18 06:22:59;;;;;;;1.25;0.93;;;7.60;99.90;;;;;;5060756;28;20652;-65
2022/11/18 06:25:30;;;;;;;1.00;0.90;;;7.60;99.90;;;;;;5059922;28;20181;-65
2022/11/18 06:28:01;;;;;;;0.70;0.70;;;7.60;99.90;;;;;;5021395;28;1099117;-65
2022/11/18 06:30:29;;;;;;;3.17;0.93;;;7.70;99.90;;;;;;5073689;28;20224;-65
2022/11/18 06:32:57;;;;;;;0.70;0.70;;;7.60;99.90;;;;;;5072340;28;20550;-65
2022/11/18 06:35:25;;;;;;;1.73;1.63;;;7.60;99.90;;;;;;5061659;28;20219;-65
2022/11/18 06:37:53;;;;;;;3.30;1.15;;;7.60;99.90;;;;;;5060281;28;20274;-65
2022/11/18 06:40:20;;;;;;;1.70;1.60;;;7.60;99.90;;;;;;5063155;28;20211;-65
2022/11/18 06:45:35;;;;;;;0.65;0.65;;;7.60;99.90;;;;;;5062465;28;20203;-65
2022/11/18 06:48:04;;;;;;;3.17;2.05;;;7.60;99.90;;;;;;5061989;28;20211;-68
2022/11/18 06:50:31;;;;;;;1.25;1.25;;;7.60;99.90;;;;;;5059160;28;20239;-67
2022/11/18 06:53:00;;;;;;;1.20;1.20;;;7.60;99.90;;;;;;5052599;28;20204;-66
2022/11/18 06:55:28;;;;;;;2.22;1.83;;;7.60;99.90;;;;;;5053729;28;20258;-66
2022/11/18 06:57:57;;;;;;;2.10;1.60;;;7.60;99.90;;;;;;5051635;28;20671;-66
2022/11/18 07:00:25;;;;;;;2.05;1.95;;;7.70;99.90;;;;;;5053478;28;20578;-66
2022/11/18 07:02:53;;;;;;;1.02;1.02;;;7.60;99.90;;;;;;5050464;28;20204;-66
2022/11/18 07:05:21;;;;;;;0.90;0.90;;;7.70;99.90;;;;;;5052247;28;20205;-66
2022/11/18 07:07:49;;;;;;;2.92;2.45;;;7.70;99.90;;;;;;5058474;28;20605;-66
2022/11/18 07:10:17;;;;;;;3.92;2.58;;;7.70;99.90;;;;;;5057177;28;20217;-66
2022/11/18 07:12:45;;;;;;;1.30;1.20;;;7.70;99.90;;;;;;5054128;28;20288;-66
2022/11/18 07:15:14;;;;;;;3.83;3.65;;;7.70;99.90;;;;;;5052786;28;20216;-66
2022/11/18 07:17:42;;;;;;;1.60;1.50;;;7.70;99.90;;;;;;5051412;28;20655;-66
2022/11/18 07:20:11;;;;;;;2.72;1.70;;;7.70;99.90;;;;;;5051858;28;20200;-66
2022/11/18 07:22:38;;;;;;;0.90;0.90;;;7.70;99.90;;;;;;5068430;28;20214;-66
2022/11/18 07:25:07;;;;;;;1.88;0.68;;;7.70;99.90;;;;;;5051797;28;20682;-67
2022/11/18 07:27:35;;;;;;;0.77;0.77;;;7.70;99.90;;;;;;5054846;28;20205;-66
2022/11/18 07:30:03;;;;;;;0.98;0.88;;;7.70;99.90;;;;;;5062242;28;20661;-66
2022/11/18 07:32:34;;;;;;;0.98;0.82;;;7.70;99.90;;;;;;5059552;28;20685;-66
2022/11/18 07:35:02;;;;;;;2.58;0.90;;;7.80;99.90;;;;;;5051706;28;20200;-65
2022/11/18 07:37:29;;;;;;;0.75;0.70;;;7.80;99.90;;;;;;5052091;28;20670;-66
2022/11/18 07:39:58;;;;;;;1.60;0.90;;;7.80;99.90;;;;;;5061859;28;20204;-66
2022/11/18 07:42:26;;;;;;;1.00;0.98;;;7.80;99.90;;;;;;5051498;28;20226;-65
2022/11/18 07:44:54;;;;;;;2.10;1.25;;;7.80;99.90;;;;;;5051780;28;20200;-66
2022/11/18 07:47:22;;;;;;;1.55;1.10;;;7.80;99.90;;;;;;5050387;28;20678;-65
2022/11/18 07:49:51;;;;;;;1.13;0.93;;;7.80;99.90;;;;;;5051598;28;20216;-65
2022/11/18 07:52:19;;;;;;;0.95;0.95;;;7.80;99.90;;;;;;5051764;28;20228;-65
2022/11/18 07:54:47;;;;;;;1.10;0.95;;;7.80;99.90;;;;;;5051513;28;20674;-64
2022/11/18 07:57:15;;;;;;;1.77;1.20;;;7.90;99.90;;;;;;5058381;28;20246;-66
2022/11/18 07:59:43;;;;;;;0.90;0.90;;;7.90;99.90;;;;;;5052882;28;20205;-66
2022/11/18 08:02:11;;;;;;;3.90;1.23;;;7.90;99.90;;;;;;5067187;28;20192;-66
2022/11/18 08:04:39;;;;;;;1.80;1.17;;;7.90;99.90;;;;;;5065576;28;20201;-66
2022/11/18 08:07:10;;;;;;;2.05;1.10;;;8.00;99.90;;;;;;5058872;28;20193;-65
2022/11/18 08:09:38;;;;;;;1.30;1.30;;;8.00;99.90;;;;;;5059983;28;20211;-65
2022/11/18 08:12:07;;;;;;;1.20;1.20;;;8.00;99.90;;;;;;5064269;28;20228;-65
2022/11/18 08:14:34;;;;;;;1.52;1.23;;;8.00;99.90;;;;;;5070008;28;20207;-65
2022/11/18 08:17:02;;;;;;;1.08;1.02;;;8.00;99.90;;;;;;5058852;28;20205;-65
2022/11/18 08:19:30;;;;;;;3.45;1.27;;;8.10;99.90;;;;;;5060278;28;20200;-65
2022/11/18 08:21:58;;;;;;;0.90;0.90;;;8.10;99.90;;;;;;5065460;28;20561;-65
2022/11/18 08:24:27;;;;;;;2.90;1.05;;;8.20;99.90;;;;;;5072158;28;20196;-64
2022/11/18 08:26:56;;;;;;;1.00;1.00;;;8.20;99.90;;;;;;5071155;28;20257;-65
2022/11/18 08:29:24;;;;;;;1.30;1.20;;;8.20;99.90;;;;;;5071388;28;20235;-67
2022/11/18 08:31:51;;;;;;;1.13;1.02;;;8.20;99.90;;;;;;5071065;28;20223;-66
2022/11/18 08:34:19;;;;;;;1.40;1.30;;;8.20;99.90;;;;;;5070948;28;20211;-66
2022/11/18 08:36:47;;;;;;;0.93;0.93;;;8.20;99.90;;;;;;5061177;28;20205;-66
2022/11/18 08:39:15;;;;;;;1.20;1.10;;;8.30;99.90;;;;;;5062299;28;20207;-66
2022/11/18 08:41:45;;;;;;;2.28;0.88;;;8.40;99.90;;;;;;5055439;28;20200;-66
2022/11/18 08:44:15;;;;;;;1.80;1.23;;;8.50;99.90;;;;;;5052908;28;20662;-65
2022/11/18 08:46:44;;;;;;;1.20;1.10;;;8.50;99.90;;;;;;5066394;28;20204;-66
2022/11/18 08:49:12;;;;;;;1.30;1.20;;;8.50;99.90;;;;;;5071110;28;20212;-66
2022/11/18 08:51:40;;;;;;;1.20;1.10;;;8.50;99.90;;;;;;5056222;28;20213;-66
2022/11/18 08:54:08;;;;;;;1.60;1.13;;;8.50;99.90;;;;;;5067820;28;20571;-67
2022/11/18 08:56:36;;;;;;;2.03;1.30;;;8.50;99.90;;;;;;5067776;28;20205;-66
2022/11/18 08:59:05;;;;;;;1.63;1.52;;;8.50;99.90;;;;;;5051065;28;20675;-66
2022/11/18 09:01:33;;;;;;;1.58;1.48;;;8.60;99.90;;;;;;5050467;28;20208;-67
2022/11/18 09:04:01;;;;;;;1.00;1.00;;;8.60;99.90;;;;;;5061608;28;20199;-66
2022/11/18 09:06:29;;;;;;;5.40;1.33;;;8.60;99.90;;;;;;5057899;28;20201;-65
2022/11/18 09:08:57;;;;;;;1.92;1.60;;;8.60;99.90;;;;;;5054850;28;20673;-65
2022/11/18 09:11:26;;;;;;;1.50;1.40;;;8.70;99.90;;;;;;5051657;28;20225;-65
2022/11/18 09:13:56;;;;;;;2.00;1.58;;;8.60;99.90;;;;;;5066272;28;20199;-66
2022/11/18 09:16:27;;;;;;;1.77;1.23;;;8.70;99.90;;;;;;5052651;28;20204;-65
2022/11/18 09:18:55;;;;;;;1.08;1.08;;;8.80;99.90;;;;;;5069630;28;20266;-65
2022/11/18 09:21:24;;;;;;;5.00;1.20;;;8.80;99.90;;;;;;5053316;28;20573;-66
2022/11/18 09:23:52;;;;;;;1.40;1.30;;;8.80;99.90;;;;;;5055211;28;20208;-65
2022/11/18 09:26:22;;;;;;;2.00;1.45;;;8.80;99.90;;;;;;5057919;28;20205;-65
2022/11/18 09:28:53;;;;;;;1.40;1.30;;;8.80;99.90;;;;;;5054693;28;20695;-65
2022/11/18 09:31:21;;;;;;;1.50;1.40;;;8.80;99.90;;;;;;5057495;28;20221;-64
2022/11/18 09:33:50;;;;;;;2.00;1.90;;;9.00;99.90;;;;;;5055796;28;20196;-65
2022/11/18 09:36:21;;;;;;;2.05;1.55;;;9.00;99.90;;;;;;5073010;28;20565;-65
2022/11/18 09:38:49;;;;;;;3.83;2.13;;;9.00;99.90;;;;;;5055109;28;20192;-64
2022/11/18 09:41:37;;;;;;;2.78;2.20;;;9.00;99.90;;;;;;5053855;28;20189;-65
2022/11/18 09:44:13;;;;;;;4.70;2.17;;;9.00;99.90;;;;;;5064640;28;20196;-65
2022/11/18 09:46:54;;;;;;;4.10;2.33;;;9.00;99.90;;;;;;5062342;28;20188;-65
2022/11/18 09:49:27;;;;;;;4.68;2.25;;;9.10;99.90;;;;;;5068594;28;20192;-65
2022/11/18 09:51:56;;;;;;;2.05;1.95;;;9.10;99.90;;;;;;5072296;28;20216;-65
2022/11/18 09:54:26;;;;;;;2.72;2.53;;;9.10;99.90;;;;;;5053718;28;20200;-65
2022/11/18 09:56:55;;;;;;;3.55;2.90;;;9.20;99.90;;;;;;5053085;28;20192;-65
2022/11/18 09:59:25;;;;;;;4.65;2.35;;;9.30;99.90;;;;;;5053655;28;20203;-66
2022/11/18 10:01:58;;;;;;;3.30;3.00;;;9.30;99.90;;;;;;5052612;28;20188;-65
2022/11/18 10:04:29;;;;;;;6.30;3.95;;;9.40;99.90;;;;;;5052845;28;20200;-65
2022/11/18 10:06:57;;;;;;;3.35;3.15;;;9.50;99.90;;;;;;5052974;28;20200;-65
2022/11/18 10:09:34;;;;;;;4.63;3.08;;;9.50;99.90;;;;;;5052684;28;20678;-67
2022/11/18 10:12:14;;;;;;;4.53;3.20;;;9.60;99.90;;;;;;5052641;28;20228;-65
2022/11/18 10:15:06;;;;;;;3.33;3.00;;;9.80;99.90;;;;;;5052361;28;20636;-64
2022/11/18 10:17:49;;;;;;;3.38;3.10;;;9.80;99.90;;;;;;5052734;28;20205;-65
2022/11/18 10:20:30;;;;;;;3.45;3.05;;;9.90;99.90;;;;;;5053624;28;20195;-64
2022/11/18 10:23:05;;;;;;;3.90;3.13;;;9.90;99.90;;;;;;5053289;28;20246;-64
2022/11/18 10:25:33;;;;;;;4.25;3.28;;;9.90;99.90;;;;;;5052948;28;20201;-64
2022/11/18 10:28:15;;;;;;;3.78;3.17;;;10.00;99.90;;;;;;5054633;28;20231;-64
2022/11/18 10:30:44;;;;;;;4.03;3.65;;;10.00;99.90;;;;;;5058088;28;20222;-64
2022/11/18 10:33:27;;;;;;;5.25;2.88;;;10.00;99.90;;;;;;5054731;28;20262;-65
2022/11/18 10:36:18;;;;;;;3.25;2.55;;;10.10;99.90;;;;;;5053627;28;20204;-65
2022/11/18 10:38:46;;;;;;;3.20;3.00;;;10.10;99.90;;;;;;5073189;28;20204;-64
2022/11/18 10:41:16;;;;;;;3.25;2.30;;;10.30;99.90;;;;;;5069547;28;20234;-64
2022/11/18 10:43:48;;;;;;;2.55;1.95;;;10.30;99.90;;;;;;5052983;28;20196;-65
2022/11/18 10:46:18;;;;;;;4.15;2.10;;;10.40;99.90;;;;;;5054996;28;20204;-65
2022/11/18 10:48:46;;;;;;;6.20;2.50;;;10.60;99.90;;;;;;5058030;28;20197;-65
2022/11/18 10:51:23;;;;;;;3.42;2.00;;;10.70;99.90;;;;;;5059253;28;20213;-65
2022/11/18 10:53:51;;;;;;;3.78;2.10;;;10.90;99.90;;;;;;5063999;28;20545;-65
2022/11/18 10:56:19;;;;;;;1.65;1.50;;;11.10;99.90;;;;;;5052218;28;20261;-65
2022/11/18 10:58:50;;;;;;;5.60;1.73;;;11.10;99.90;;;;;;5065079;28;20666;-65
2022/11/18 11:01:21;;;;;;;1.30;1.20;;;11.00;99.90;;;;;;5071876;28;20192;-65
2022/11/18 11:03:58;;;;;;;2.65;1.40;;;10.80;99.90;;;;;;5071318;28;20188;-64
2022/11/18 11:06:32;;;;;;;1.38;1.27;;;10.60;99.90;;;;;;5065454;28;20188;-65
2022/11/18 11:09:04;;;;;;;1.35;1.25;;;10.70;99.90;;;;;;5068562;28;20212;-65
2022/11/18 11:11:34;;;;;;;1.05;0.95;;;10.70;99.90;;;;;;5072319;28;20223;-64
2022/11/18 11:14:11;;;;;;;1.60;1.50;;;10.60;99.90;;;;;;5072442;28;20189;-64
2022/11/18 11:16:47;;;;;;;4.55;2.50;;;10.60;99.90;;;;;;5069453;28;20252;-65
2022/11/18 11:19:21;;;;;;;2.47;1.92;;;10.70;99.90;;;;;;5062798;28;20192;-64
2022/11/18 11:21:51;;;;;;;1.20;1.10;;;10.70;99.90;;;;;;5070952;28;20643;-64
2022/11/18 11:24:22;;;;;;;4.40;1.60;;;10.70;99.90;;;;;;5063416;28;20193;-64
2022/11/18 11:26:59;;;;;;;2.28;1.38;;;10.80;99.90;;;;;;5058861;28;20203;-64
2022/11/18 11:29:52;;;;;;;2.97;1.77;;;10.90;99.90;;;;;;5072236;28;20637;-64
2022/11/18 11:32:29;;;;;;;3.17;1.45;;;10.90;99.90;;;;;;5065687;28;20205;-64
2022/11/18 11:35:02;;;;;;;3.80;1.38;;;10.90;99.90;;;;;;5052749;28;20624;-64
2022/11/18 11:37:45;;;;;;;2.17;1.33;;;10.90;99.90;;;;;;5052651;28;20208;-64
2022/11/18 11:40:24;;;;;;;1.77;1.00;;;10.90;99.90;;;;;;5050514;28;20200;-63
2022/11/18 11:43:06;;;;;;;3.80;1.25;;;10.90;99.90;;;;;;5053353;28;20643;-64
2022/11/18 11:45:44;;;;;;;1.67;1.20;;;10.90;99.90;;;;;;5059155;28;20192;-63
2022/11/18 11:48:27;;;;;;;2.88;1.33;;;10.90;99.90;;;;;;5054665;28;20192;-64
2022/11/18 11:50:59;;;;;;;3.28;1.50;;;11.00;99.90;;;;;;5066574;28;20204;-65
2022/11/18 11:53:48;;;;;;;5.75;2.00;;;11.20;99.90;;;;;;5072196;28;20216;-64
2022/11/18 11:56:25;;;;;;;3.10;1.70;;;11.10;99.90;;;;;;5064360;28;20192;-64
2022/11/18 11:59:11;;;;;;;2.67;1.80;;;11.30;99.90;;;;;;5054927;28;20207;-64
2022/11/18 12:01:50;;;;;;;2.65;1.40;;;11.10;99.90;;;;;;5060891;28;20200;-64
2022/11/18 12:04:32;;;;;;;5.90;2.58;;;11.10;99.90;;;;;;5060184;28;20583;-64
2022/11/18 12:07:02;;;;;;;2.80;1.27;;;10.90;99.90;;;;;;5058196;28;20199;-64
2022/11/18 12:09:45;;;;;;;4.32;1.30;;;11.00;99.90;;;;;;5061044;28;20204;-63
2022/11/18 12:12:34;;;;;;;1.60;1.15;;;11.00;99.90;;;;;;5060433;28;20216;-64
2022/11/18 12:15:18;;;;;;;3.47;1.10;;;11.10;99.90;;;;;;5061397;28;20203;-64
2022/11/18 12:17:54;;;;;;;2.00;1.20;;;11.10;99.90;;;;;;5061465;28;20558;-64
2022/11/18 12:20:40;;;;;;;3.47;1.17;;;11.30;99.90;;;;;;5059718;28;20196;-65
2022/11/18 12:23:17;;;;;;;2.45;1.40;;;11.50;99.90;;;;;;5056116;28;20196;-65
2022/11/18 12:26:11;;;;;;;2.83;1.80;;;11.70;99.90;;;;;;5059822;28;20187;-64
2022/11/18 12:28:41;;;;;;;1.50;1.23;;;11.70;99.90;;;;;;5057212;28;20220;-64
2022/11/18 12:31:33;;;;;;;3.90;1.38;;;11.50;99.90;;;;;;5057511;28;20207;-64
2022/11/18 12:34:04;;;;;;;6.20;1.65;;;11.40;99.90;;;;;;5064087;28;20650;-64
2022/11/18 12:36:34;;;;;;;7.00;1.50;;;11.30;99.90;;;;;;5056631;28;20749;-64
2022/11/18 12:39:41;;;;;;;9.27;2.17;;;11.20;99.90;;;;;;5058495;28;20635;-65
2022/11/18 12:45:57;;;;;;;2.03;1.37;;;11.40;99.90;;;;;;5057962;28;20185;-64
2022/11/18 12:48:43;;;;;;;2.33;1.90;;;11.40;99.90;;;;;;5051068;28;20631;-65
2022/11/18 12:51:40;;;;;;;6.22;3.13;;;11.60;99.90;;;;;;5050960;28;20211;-64
2022/11/18 12:54:31;;;;;;;3.27;1.80;;;12.20;99.90;;;;;;5050668;28;20687;-64
2022/11/18 12:57:01;;;;;;;3.85;2.40;;;12.40;99.90;;;;;;5053523;28;20602;-65
2022/11/18 12:59:34;;;;;;;3.23;1.70;;;12.30;99.90;;;;;;5053846;28;20663;-64
2022/11/18 13:02:07;;;;;;;4.57;1.73;;;12.00;99.90;;;;;;5054694;28;20992;-64
2022/11/18 13:04:34;;;;;;;13.83;2.13;;;11.80;99.90;;;;;;5053702;28;20188;-65
2022/11/18 13:07:03;;;;;;;2.05;1.65;;;11.40;99.90;;;;;;5058258;28;20622;-65
2022/11/18 13:09:34;;;;;;;5.87;1.67;;;11.20;99.90;;;;;;5066481;28;20702;-65
2022/11/18 13:12:07;;;;;;;5.22;1.75;;;11.00;99.90;;;;;;5065223;28;21068;-66
2022/11/18 13:20:22;;;;;;;3.78;1.73;;;11.40;99.90;;;;;;5067243;28;20200;-64
2022/11/18 13:25:36;;;;;;;18.53;2.00;;;11.70;99.90;;;;;;5062091;28;20617;-64
2022/11/18 13:28:13;;;;;;;8.07;2.40;;;11.50;99.90;;;;;;5061022;28;20632;-65
2022/11/18 13:30:51;;;;;;;2.75;1.33;;;11.60;99.90;;;;;;5075273;28;20605;-65
2022/11/18 13:33:19;;;;;;;2.40;2.00;;;11.60;99.90;;;;;;5074940;28;20285;-64
2022/11/18 13:35:47;;;;;;;2.83;1.50;;;11.60;99.90;;;;;;5070009;28;20626;-64
2022/11/18 13:38:21;;;;;;;3.47;1.50;;;11.30;99.90;;;;;;5074821;28;20200;-65
2022/11/18 13:41:11;;;;;;;3.95;1.50;;;11.10;99.90;;;;;;5074648;28;20186;-64
2022/11/18 13:43:39;;;;;;;4.22;1.60;;;11.10;99.90;;;;;;5074535;28;20195;-64
2022/11/18 13:46:16;;;;;;;2.75;1.33;;;11.10;99.90;;;;;;5074495;28;20200;-64
2022/11/18 13:48:51;;;;;;;5.40;1.80;;;11.80;99.90;;;;;;5071406;28;20549;-65